Time;durP1;ratioP1;P1;durP2;ratioP2;P2;SDS_P1;SDS_P2;PMS_P1;PMS_P2;Temp;Humidity;BMP_temperature;BMP_pressure;BME280_temperature;BME280_humidity;BME280_pressure;Samples;Min_cycle;Max_cycle;Signal;HPM_P1;HPM_P2
2023/01/02 00:00:29;;;;;;;15.57;11.27;;;;;;;5.93;100.00;100803.37;1674091;85;21348;-64
2023/01/02 00:02:56;;;;;;;15.47;10.67;;;;;;;5.93;100.00;100798.67;1621782;86;21213;-62
2023/01/02 00:05:26;;;;;;;13.43;10.57;;;;;;;5.91;100.00;100810.44;1626531;88;21679;-62
2023/01/02 00:07:54;;;;;;;17.40;11.50;;;;;;;5.90;100.00;100816.55;1599184;89;21274;-62
2023/01/02 00:10:21;;;;;;;17.23;12.47;;;;;;;5.86;100.00;100823.77;1611397;88;21871;-64
2023/01/02 00:12:48;;;;;;;16.53;12.20;;;;;;;5.84;100.00;100819.70;1598234;88;21227;-64
2023/01/02 00:15:16;;;;;;;16.60;11.60;;;;;;;5.85;100.00;100823.92;1599144;88;22118;-62
2023/01/02 00:17:45;;;;;;;17.07;11.97;;;;;;;5.85;100.00;100823.92;1600606;88;22024;-62
2023/01/02 00:20:12;;;;;;;16.77;12.77;;;;;;;5.85;100.00;100820.85;1598794;88;21180;-64
2023/01/02 00:22:39;;;;;;;17.03;12.37;;;;;;;5.92;100.00;100831.95;1625791;88;21403;-66
2023/01/02 00:25:07;;;;;;;17.87;11.90;;;;;;;5.97;100.00;100834.96;1598650;89;22142;-62
2023/01/02 00:27:34;;;;;;;16.83;11.53;;;;;;;6.00;100.00;100841.16;1599008;88;21345;-62
2023/01/02 00:30:04;;;;;;;14.93;11.53;;;;;;;6.03;100.00;100845.58;1600212;88;21234;-62
2023/01/02 00:32:32;;;;;;;18.23;13.53;;;;;;;6.05;100.00;100833.78;1598734;89;21327;-65
2023/01/02 00:34:59;;;;;;;16.07;11.83;;;;;;;6.06;100.00;100841.88;1625440;87;21210;-63
2023/01/02 00:37:28;;;;;;;16.37;12.07;;;;;;;6.05;100.00;100832.01;1599389;89;22344;-62
2023/01/02 00:39:55;;;;;;;15.27;11.67;;;;;;;6.05;100.00;100836.38;1599553;88;21706;-62
2023/01/02 00:42:22;;;;;;;17.40;12.67;;;;;;;6.04;100.00;100847.69;1599260;88;21290;-63
2023/01/02 00:44:50;;;;;;;17.13;12.27;;;;;;;6.02;100.00;100838.78;1598652;88;21331;-64
2023/01/02 00:47:18;;;;;;;16.03;11.67;;;;;;;6.02;100.00;100834.05;1598986;89;22347;-63
2023/01/02 00:49:45;;;;;;;15.87;11.07;;;;;;;6.03;100.00;100844.29;1599472;88;21272;-63
2023/01/02 00:52:12;;;;;;;16.30;11.93;;;;;;;6.00;100.00;100851.03;1599622;89;21097;-63
2023/01/02 00:54:39;;;;;;;14.70;11.33;;;;;;;6.00;100.00;100838.57;1599894;88;21266;-64
2023/01/02 00:57:06;;;;;;;16.13;12.37;;;;;;;5.98;100.00;100832.22;1598703;88;21880;-63
2023/01/02 00:59:35;;;;;;;17.33;12.53;;;;;;;5.98;100.00;100832.22;1599487;89;21247;-63
2023/01/02 01:02:02;;;;;;;15.93;11.70;;;;;;;5.97;100.00;100819.44;1599383;89;21170;-64
2023/01/02 01:04:32;;;;;;;16.70;12.07;;;;;;;5.97;100.00;100830.59;1612737;88;21232;-65
2023/01/02 01:07:00;;;;;;;14.95;11.00;;;;;;;5.96;100.00;100820.40;1621221;88;21392;-64
2023/01/02 01:09:28;;;;;;;17.33;12.67;;;;;;;5.96;100.00;100825.09;1621825;88;21839;-63
2023/01/02 01:11:56;;;;;;;15.83;12.07;;;;;;;5.94;100.00;100820.52;1621634;88;21328;-63
2023/01/02 01:14:24;;;;;;;15.47;12.13;;;;;;;5.93;100.00;100826.66;1621549;88;21163;-63
2023/01/02 01:16:51;;;;;;;18.23;12.30;;;;;;;5.94;100.00;100830.88;1620778;87;21941;-65
2023/01/02 01:19:18;;;;;;;15.60;12.30;;;;;;;5.94;100.00;100832.16;1620704;88;22513;-64
2023/01/02 01:21:45;;;;;;;17.20;12.20;;;;;;;5.93;100.00;100826.66;1621009;87;21729;-64
2023/01/02 01:24:15;;;;;;;14.80;11.30;;;;;;;5.94;100.00;100830.06;1622543;86;21356;-65
2023/01/02 01:26:42;;;;;;;14.83;11.27;;;;;;;5.93;100.00;100836.20;1620925;87;21288;-63
2023/01/02 01:29:09;;;;;;;17.90;11.80;;;;;;;5.91;100.00;100833.73;1648450;86;21356;-64
2023/01/02 01:31:36;;;;;;;16.60;12.30;;;;;;;5.89;100.00;100827.86;1621199;88;22527;-63
2023/01/02 01:34:04;;;;;;;15.33;12.27;;;;;;;5.88;100.00;100831.41;1621137;87;21834;-62
2023/01/02 01:36:31;;;;;;;16.47;11.80;;;;;;;5.85;100.00;100831.68;1620958;87;21758;-63
2023/01/02 01:38:58;;;;;;;15.63;12.27;;;;;;;5.83;100.00;100837.01;1621637;88;21299;-63
2023/01/02 01:41:25;;;;;;;19.50;13.03;;;;;;;5.83;100.00;100830.53;1620655;88;21175;-63
2023/01/02 01:43:55;;;;;;;15.47;11.37;;;;;;;5.81;100.00;100825.97;1621151;87;22206;-65
2023/01/02 01:46:41;;;;;;;15.75;12.15;;;;;;;5.80;100.00;100826.11;1620861;87;21902;-64
2023/01/02 01:49:23;;;;;;;16.17;11.73;;;;;;;5.75;100.00;100832.97;1624011;88;21019;-64
2023/01/02 01:51:58;;;;;;;17.20;11.93;;;;;;;5.70;100.00;100828.70;1620241;88;21224;-64
2023/01/02 01:54:29;;;;;;;16.47;12.00;;;;;;;5.65;100.00;100832.18;1621185;87;21229;-64
2023/01/02 01:57:00;;;;;;;16.02;12.23;;;;;;;5.61;100.00;100823.06;1620924;87;21271;-63
2023/01/02 01:59:27;;;;;;;15.55;11.25;;;;;;;5.57;100.00;100834.16;1621675;87;21521;-63
2023/01/02 02:01:55;;;;;;;15.50;12.00;;;;;;;5.54;100.00;100827.14;1620864;88;20976;-63
2023/01/02 02:04:22;;;;;;;14.60;10.80;;;;;;;5.50;100.00;100827.08;1621127;87;21207;-63
2023/01/02 02:06:49;;;;;;;16.07;11.10;;;;;;;5.47;100.00;100828.16;1621178;87;21331;-65
2023/01/02 02:09:23;;;;;;;14.83;11.60;;;;;;;5.44;100.00;100820.67;1621075;88;21928;-63
2023/01/02 02:11:50;;;;;;;16.27;11.40;;;;;;;5.43;100.00;100819.05;1620705;88;21164;-63
2023/01/02 02:14:18;;;;;;;16.17;11.43;;;;;;;5.42;100.00;100834.22;1652335;86;21306;-63
2023/01/02 02:16:53;;;;;;;15.90;11.50;;;;;;;5.42;100.00;100835.97;1649224;85;21289;-65
2023/01/02 02:19:52;;;;;;;18.70;12.90;;;;;;;5.43;100.00;100849.25;1621324;87;21815;-64
2023/01/02 02:22:36;;;;;;;16.27;10.97;;;;;;;5.47;100.00;100854.49;1621045;87;21253;-64
2023/01/02 02:25:30;;;;;;;15.13;10.50;;;;;;;5.49;100.00;100832.73;1621310;87;21040;-64
2023/01/02 02:28:36;;;;;;;15.60;11.23;;;;;;;5.49;100.00;100828.85;1620977;87;21808;-65
2023/01/02 02:31:24;;;;;;;15.37;10.87;;;;;;;5.52;100.00;100828.56;1649638;85;21749;-63
2023/01/02 02:34:21;;;;;;;14.83;11.07;;;;;;;5.52;100.00;100829.84;1620802;88;21328;-64
2023/01/02 02:37:01;;;;;;;15.17;11.60;;;;;;;5.51;100.00;100820.95;1622324;88;21191;-65
2023/01/02 02:39:45;;;;;;;16.87;11.33;;;;;;;5.49;100.00;100817.22;1620901;88;21410;-63
2023/01/02 02:42:46;;;;;;;15.97;10.77;;;;;;;5.45;100.00;100811.95;1649325;85;21343;-65
2023/01/02 02:45:39;;;;;;;18.07;12.17;;;;;;;5.43;100.00;100819.52;1714645;83;21250;-64
2023/01/02 02:48:37;;;;;;;14.53;11.10;;;;;;;5.37;100.00;100826.03;1693770;84;21101;-65
2023/01/02 02:51:12;;;;;;;16.73;12.70;;;;;;;5.30;100.00;100831.40;1694812;84;21528;-64
2023/01/02 02:54:07;;;;;;;15.25;11.83;;;;;;;5.25;100.00;100820.17;1679802;85;21216;-64
2023/01/02 02:56:34;;;;;;;18.33;11.93;;;;;;;5.22;100.00;100823.02;1692673;84;21516;-65
2023/01/02 02:59:02;;;;;;;17.93;11.73;;;;;;;5.23;100.00;100818.70;1691757;83;21328;-64
2023/01/02 03:01:29;;;;;;;15.70;10.63;;;;;;;5.23;100.00;100813.53;1692914;83;21709;-63
2023/01/02 03:03:56;;;;;;;16.17;12.00;;;;;;;5.23;100.00;100812.23;1692651;84;21857;-63
2023/01/02 03:06:40;;;;;;;17.70;11.10;;;;;;;5.21;100.00;100817.52;1692408;84;21328;-62
2023/01/02 03:09:31;;;;;;;14.50;10.27;;;;;;;5.18;100.00;100813.91;1692295;84;22320;-64
2023/01/02 03:12:24;;;;;;;15.57;10.97;;;;;;;5.15;100.00;100814.65;1692600;84;21376;-65
2023/01/02 03:15:14;;;;;;;17.33;12.03;;;;;;;5.09;100.00;100819.41;1691427;84;21352;-63
2023/01/02 03:18:05;;;;;;;15.70;10.97;;;;;;;5.03;100.00;100810.89;1691705;83;22921;-67
2023/01/02 03:20:37;;;;;;;15.68;10.70;;;;;;;4.99;100.00;100812.59;1692257;83;21210;-65
2023/01/02 03:23:07;;;;;;;18.00;11.73;;;;;;;4.96;100.00;100817.53;1691695;84;21049;-64
2023/01/02 03:25:34;;;;;;;14.83;11.27;;;;;;;4.96;100.00;100820.12;1664870;84;22138;-63
2023/01/02 03:28:04;;;;;;;13.97;10.93;;;;;;;4.95;100.00;100833.18;1692784;83;22225;-63
2023/01/02 03:30:33;;;;;;;18.83;11.97;;;;;;;4.92;100.00;100831.67;1692959;83;21266;-63
2023/01/02 03:33:16;;;;;;;14.83;11.60;;;;;;;4.89;100.00;100825.50;1692839;83;21226;-64
2023/01/02 03:35:47;;;;;;;14.13;10.20;;;;;;;4.86;100.00;100825.28;1692822;84;21257;-63
2023/01/02 03:38:22;;;;;;;14.17;10.47;;;;;;;4.85;100.00;100825.42;1692803;83;21301;-65
2023/01/02 03:40:54;;;;;;;13.27;10.07;;;;;;;4.86;100.00;100834.80;1691121;84;21736;-65
2023/01/02 03:43:24;;;;;;;17.00;12.07;;;;;;;4.86;100.00;100831.73;1692103;84;21583;-64
2023/01/02 03:46:06;;;;;;;14.83;11.57;;;;;;;4.85;100.00;100833.98;1690080;84;21812;-65
2023/01/02 03:48:47;;;;;;;15.90;10.67;;;;;;;4.83;100.00;100833.77;1689770;84;21007;-66
2023/01/02 03:51:15;;;;;;;17.13;10.90;;;;;;;4.81;100.00;100828.74;1689929;83;22031;-64
2023/01/02 03:53:42;;;;;;;16.80;10.80;;;;;;;4.78;100.00;100828.19;1689847;84;21812;-63
2023/01/02 03:56:26;;;;;;;14.68;10.70;;;;;;;4.75;100.00;100821.51;1689643;84;22544;-64
2023/01/02 03:59:24;;;;;;;15.43;11.08;;;;;;;4.75;100.00;100821.98;1689523;84;22136;-64
2023/01/02 04:02:20;;;;;;;18.20;10.90;;;;;;;4.76;100.00;100817.97;1689827;83;21033;-65
2023/01/02 04:04:57;;;;;;;16.70;11.47;;;;;;;4.76;100.00;100817.97;1689733;83;21291;-64
2023/01/02 04:07:35;;;;;;;17.83;11.93;;;;;;;4.74;100.00;100809.55;1689821;83;21591;-64
2023/01/02 04:10:04;;;;;;;18.70;12.53;;;;;;;4.74;100.00;100813.91;1690091;84;21243;-63
2023/01/02 04:12:32;;;;;;;14.37;10.83;;;;;;;4.74;100.00;100813.42;1689941;83;20967;-63
2023/01/02 04:15:04;;;;;;;14.50;10.77;;;;;;;4.76;100.00;100819.73;1689447;84;21180;-64
2023/01/02 04:17:37;;;;;;;17.20;11.27;;;;;;;4.75;100.00;100818.92;1689939;84;21308;-63
2023/01/02 04:20:09;;;;;;;;;;;;;;;4.73;100.00;100817.41;1692429;84;21600;-64
2023/01/02 04:22:42;;;;;;;15.93;10.80;;;;;;;4.72;100.00;100817.08;1689436;84;21082;-66
2023/01/02 04:25:13;;;;;;;18.15;12.15;;;;;;;4.69;100.00;100812.16;1689087;83;21491;-65
2023/01/02 04:28:04;;;;;;;16.40;10.93;;;;;;;4.67;100.00;100808.91;1689925;84;21467;-64
2023/01/02 04:30:34;;;;;;;16.53;11.63;;;;;;;4.66;100.00;100811.13;1689143;83;21251;-66
2023/01/02 04:33:05;;;;;;;17.25;11.63;;;;;;;4.65;100.00;100812.90;1662218;84;21883;-66
2023/01/02 04:35:32;;;;;;;16.00;11.65;;;;;;;4.64;100.00;100817.25;1690284;83;22014;-64
2023/01/02 04:38:09;;;;;;;17.47;11.33;;;;;;;4.66;100.00;100816.30;1640337;84;21493;-64
2023/01/02 04:40:37;;;;;;;15.70;11.43;;;;;;;4.68;100.00;100821.69;1689031;83;21820;-66
2023/01/02 04:43:17;;;;;;;18.60;12.50;;;;;;;4.69;100.00;100830.24;1689902;84;21861;-64
2023/01/02 04:45:47;;;;;;;23.13;11.37;;;;;;;4.69;100.00;100834.12;1688449;84;21484;-64
2023/01/02 04:48:14;;;;;;;15.28;11.22;;;;;;;4.68;100.00;100837.17;1690054;83;21274;-64
2023/01/02 04:50:41;;;;;;;16.37;10.97;;;;;;;4.70;100.00;100837.88;1689590;84;21075;-64
2023/01/02 04:53:09;;;;;;;17.60;12.35;;;;;;;4.71;100.00;100836.11;1690318;84;21263;-63
2023/01/02 04:55:37;;;;;;;16.37;12.28;;;;;;;4.74;100.00;100843.60;1690314;84;21141;-63
2023/01/02 04:58:04;;;;;;;14.13;10.70;;;;;;;4.75;100.00;100847.33;1690759;83;20958;-64
2023/01/02 05:00:33;;;;;;;18.43;12.10;;;;;;;4.79;100.00;100834.98;1689325;83;21320;-66
2023/01/02 05:03:03;;;;;;;14.60;11.00;;;;;;;4.85;100.00;100847.37;1690416;84;21585;-63
2023/01/02 05:05:32;;;;;;;17.23;11.53;;;;;;;4.89;100.00;100846.16;1690626;83;21203;-63
2023/01/02 05:07:59;;;;;;;16.73;11.75;;;;;;;4.94;100.00;100860.78;1690293;83;20888;-63
2023/01/02 05:10:26;;;;;;;15.27;10.57;;;;;;;4.99;100.00;100881.05;1689560;84;21034;-65
2023/01/02 05:12:54;;;;;;;14.87;11.13;;;;;;;5.03;100.00;100894.86;1690437;84;22333;-64
2023/01/02 05:15:22;;;;;;;18.63;11.73;;;;;;;5.07;100.00;100897.52;1663371;84;21691;-63
2023/01/02 05:17:49;;;;;;;18.07;11.33;;;;;;;5.11;100.00;100909.71;1690834;83;21132;-63
2023/01/02 05:20:17;;;;;;;16.00;11.47;;;;;;;5.15;100.00;100914.14;1690245;84;21182;-66
2023/01/02 05:25:32;;;;;;;19.33;12.40;;;;;;;5.17;100.00;100916.14;1690027;83;21196;-63
2023/01/02 05:27:59;;;;;;;18.17;12.20;;;;;;;5.17;100.00;100913.55;1690041;83;21276;-65
2023/01/02 05:30:26;;;;;;;17.83;12.33;;;;;;;5.16;100.00;100907.57;1689658;84;21286;-64
2023/01/02 05:32:53;;;;;;;15.67;11.43;;;;;;;5.17;100.00;100914.37;1689576;84;21314;-63
2023/01/02 05:35:21;;;;;;;15.83;11.57;;;;;;;5.17;100.00;100923.41;1690194;83;21156;-66
2023/01/02 05:37:48;;;;;;;17.37;11.63;;;;;;;5.17;100.00;100926.00;1690081;84;21280;-63
2023/01/02 05:40:15;;;;;;;16.80;11.80;;;;;;;5.21;100.00;100929.95;1689678;84;21557;-66
2023/01/02 05:42:43;;;;;;;16.12;11.25;;;;;;;5.25;100.00;100929.22;1689537;84;21820;-64
2023/01/02 05:45:11;;;;;;;19.03;12.60;;;;;;;5.27;100.00;100934.61;1689884;84;21336;-64
2023/01/02 05:47:38;;;;;;;15.87;11.23;;;;;;;5.30;100.00;100932.21;1689943;83;21173;-64
2023/01/02 05:50:07;;;;;;;16.40;11.57;;;;;;;5.31;100.00;100932.09;1689832;84;21174;-67
2023/01/02 05:52:35;;;;;;;17.47;11.27;;;;;;;5.33;100.00;100927.59;1689983;84;21739;-67
2023/01/02 05:55:04;;;;;;;17.47;12.43;;;;;;;5.36;100.00;100929.92;1689518;84;21307;-64
2023/01/02 05:57:31;;;;;;;14.85;11.30;;;;;;;5.46;100.00;100936.90;1690072;84;21377;-64
2023/01/02 06:00:01;;;;;;;16.13;12.47;;;;;;;5.68;100.00;100946.98;1689610;84;21548;-66
2023/01/02 06:02:29;;;;;;;15.33;11.83;;;;;;;5.94;100.00;100948.61;1689904;83;21237;-65
2023/01/02 06:04:56;;;;;;;16.60;11.20;;;;;;;6.20;100.00;100950.17;1689305;84;21158;-64
2023/01/02 06:07:25;;;;;;;14.77;10.87;;;;;;;6.42;100.00;100943.08;1689803;84;22124;-64
2023/01/02 06:09:53;;;;;;;14.23;11.10;;;;;;;6.66;100.00;100946.48;1690052;83;21503;-63
2023/01/02 06:12:22;;;;;;;15.87;11.90;;;;;;;6.90;100.00;100938.25;1689670;83;21424;-64
2023/01/02 06:14:51;;;;;;;17.90;11.67;;;;;;;7.11;100.00;100939.30;1689809;84;21377;-67
2023/01/02 06:17:20;;;;;;;17.60;12.73;;;;;;;7.50;100.00;100931.67;1689497;84;21171;-63
2023/01/02 06:19:47;;;;;;;15.60;12.50;;;;;;;7.50;100.00;100931.67;1689891;84;21782;-63
2023/01/02 06:22:14;;;;;;;16.93;12.03;;;;;;;7.73;100.00;100941.14;1689667;83;21351;-67
2023/01/02 06:24:41;;;;;;;15.73;11.97;;;;;;;7.91;100.00;100931.22;1689790;83;21487;-63
2023/01/02 06:27:09;;;;;;;18.57;13.17;;;;;;;8.12;100.00;100926.55;1689472;83;22494;-65
2023/01/02 06:29:36;;;;;;;16.67;12.87;;;;;;;8.33;100.00;100929.28;1689786;84;22139;-62
2023/01/02 06:32:04;;;;;;;16.53;13.50;;;;;;;8.53;100.00;100923.78;1689861;84;21760;-63
2023/01/02 06:34:32;;;;;;;18.30;13.07;;;;;;;8.77;100.00;100919.69;1689318;84;21768;-66
2023/01/02 06:36:59;;;;;;;18.03;12.60;;;;;;;9.04;100.00;100915.25;1689476;84;21169;-63
2023/01/02 06:39:28;;;;;;;15.93;12.63;;;;;;;9.30;100.00;100913.88;1689652;84;21629;-66
2023/01/02 06:41:57;;;;;;;16.70;12.70;;;;;;;9.54;100.00;100918.32;1689703;83;21011;-63
2023/01/02 06:44:24;;;;;;;16.63;13.73;;;;;;;9.66;100.00;100931.34;1689916;83;21517;-66
2023/01/02 06:46:51;;;;;;;17.70;12.93;;;;;;;9.66;100.00;100927.44;1682634;84;21042;-62
2023/01/02 06:49:18;;;;;;;18.63;13.10;;;;;;;9.49;100.00;100933.93;1682283;84;21061;-62
2023/01/02 06:51:46;;;;;;;17.43;12.63;;;;;;;9.21;100.00;100927.36;1682251;83;21221;-63
2023/01/02 06:54:13;;;;;;;15.83;12.40;;;;;;;8.94;100.00;100920.10;1682443;83;21650;-62
2023/01/02 06:56:41;;;;;;;19.00;13.07;;;;;;;8.73;100.00;100917.06;1682218;83;21037;-63
2023/01/02 06:59:09;;;;;;;16.90;12.70;;;;;;;8.61;100.00;100917.81;1682288;83;21013;-62
2023/01/02 07:01:37;;;;;;;15.57;11.90;;;;;;;8.59;100.00;100924.94;1682905;84;21012;-66
2023/01/02 07:04:04;;;;;;;15.80;12.70;;;;;;;8.72;100.00;100929.73;1682302;83;21097;-62
2023/01/02 07:06:33;;;;;;;15.50;12.43;;;;;;;9.05;100.00;100935.08;1682636;83;21340;-64
2023/01/02 07:09:00;;;;;;;15.87;12.80;;;;;;;9.34;100.00;100943.81;1663390;85;20948;-62
2023/01/02 07:11:29;;;;;;;15.10;12.13;;;;;;;9.46;100.00;100955.55;1682726;83;21048;-64
2023/01/02 07:13:58;;;;;;;15.30;11.60;;;;;;;9.45;100.00;100948.23;1682304;83;20970;-63
2023/01/02 07:16:25;;;;;;;15.83;11.47;;;;;;;9.52;100.00;100960.62;1682759;83;22708;-66
2023/01/02 07:18:53;;;;;;;16.80;12.17;;;;;;;9.62;100.00;100970.39;1682081;85;21004;-63
2023/01/02 07:21:21;;;;;;;16.77;12.33;;;;;;;9.73;100.00;100968.78;1682605;84;20948;-63
2023/01/02 07:23:48;;;;;;;16.33;11.93;;;;;;;9.86;100.00;100970.45;1682880;84;21529;-67
2023/01/02 07:26:15;;;;;;;17.07;11.40;;;;;;;10.02;100.00;100961.84;1682088;84;20996;-65
2023/01/02 07:28:44;;;;;;;14.83;11.93;;;;;;;10.08;100.00;100964.30;1681756;85;21420;-64
2023/01/02 07:31:14;;;;;;;14.20;11.53;;;;;;;10.03;100.00;100958.73;1662749;85;21331;-63
2023/01/02 07:33:41;;;;;;;14.00;10.83;;;;;;;10.02;100.00;100967.05;1682686;85;21009;-64
2023/01/02 07:36:12;;;;;;;16.03;11.87;;;;;;;10.09;100.00;100971.94;1681918;84;21482;-63
2023/01/02 07:38:39;;;;;;;13.60;11.17;;;;;;;10.26;100.00;100921.97;1682202;83;21019;-64
2023/01/02 07:41:18;;;;;;;13.63;10.40;;;;;;;10.45;100.00;100952.08;1682495;83;22438;-63
2023/01/02 07:43:45;;;;;;;14.03;12.17;;;;;;;10.67;100.00;100950.08;1682118;83;21000;-64
2023/01/02 07:46:13;;;;;;;12.93;11.07;;;;;;;10.84;100.00;100946.15;1681697;84;20907;-64
2023/01/02 07:48:41;;;;;;;13.33;11.57;;;;;;;11.04;100.00;100942.16;1682408;84;21011;-63
2023/01/02 07:51:08;;;;;;;14.30;11.43;;;;;;;11.25;100.00;100940.28;1682552;85;20987;-63
2023/01/02 07:53:35;;;;;;;15.67;11.07;;;;;;;11.50;100.00;100938.84;1682617;84;21120;-62
2023/01/02 07:56:02;;;;;;;13.93;10.83;;;;;;;11.72;100.00;100940.66;1682094;83;21046;-65
2023/01/02 07:58:30;;;;;;;15.10;11.20;;;;;;;11.99;100.00;100944.58;1681970;84;21090;-66
2023/01/02 08:00:57;;;;;;;13.87;10.73;;;;;;;12.26;100.00;100947.62;1682607;85;21973;-64
2023/01/02 08:03:25;;;;;;;16.00;12.20;;;;;;;12.47;100.00;100949.07;1682628;85;21469;-64
2023/01/02 08:05:52;;;;;;;15.27;10.73;;;;;;;12.66;100.00;100951.16;1683155;83;21119;-64
2023/01/02 08:08:19;;;;;;;14.27;10.67;;;;;;;12.68;100.00;100952.28;1682485;84;20947;-64
2023/01/02 08:10:48;;;;;;;12.97;9.93;;;;;;;12.62;100.00;100958.25;1683228;84;21537;-63
2023/01/02 08:13:16;;;;;;;14.93;9.97;;;;;;;12.52;100.00;100961.11;1682955;85;21007;-63
2023/01/02 08:15:43;;;;;;;13.87;9.93;;;;;;;12.41;100.00;100967.58;1682639;84;20939;-63
2023/01/02 08:18:10;;;;;;;15.40;10.63;;;;;;;12.26;100.00;100973.77;1682371;83;21169;-66
2023/01/02 08:20:37;;;;;;;14.33;11.00;;;;;;;12.13;100.00;100967.84;1681901;84;20940;-66
2023/01/02 08:23:06;;;;;;;13.93;10.90;;;;;;;12.02;100.00;100973.47;1682691;83;22242;-63
2023/01/02 08:25:33;;;;;;;12.03;9.80;;;;;;;11.97;100.00;100974.00;1682768;84;21785;-62
2023/01/02 08:28:00;;;;;;;12.20;9.30;;;;;;;12.03;100.00;100982.93;1682456;85;20927;-63
2023/01/02 08:30:27;;;;;;;12.23;9.80;;;;;;;12.18;100.00;100975.95;1682184;84;22382;-63
2023/01/02 08:32:56;;;;;;;11.37;9.40;;;;;;;12.33;100.00;100975.50;1682133;83;21778;-65
2023/01/02 08:35:23;;;;;;;12.33;9.00;;;;;;;12.49;100.00;100977.65;1682573;83;21047;-64
2023/01/02 08:37:52;;;;;;;11.77;9.10;;;;;;;12.62;100.00;100973.44;1682581;85;21498;-65
2023/01/02 08:40:20;;;;;;;10.83;8.97;;;;;;;12.74;100.00;100975.61;1681976;83;21092;-66
2023/01/02 08:42:47;;;;;;;9.93;7.53;;;;;;;12.80;100.00;100978.30;1682332;84;21145;-66
2023/01/02 08:45:15;;;;;;;12.10;8.83;;;;;;;12.80;100.00;100978.30;1681758;84;21450;-64
2023/01/02 08:47:42;;;;;;;9.93;8.60;;;;;;;12.75;100.00;100981.97;1681734;85;21006;-63
2023/01/02 08:50:09;;;;;;;11.93;9.47;;;;;;;12.63;100.00;100980.79;1682404;84;21541;-63
2023/01/02 08:52:36;;;;;;;11.00;8.10;;;;;;;12.50;100.00;100970.95;1682306;85;21501;-63
2023/01/02 08:55:05;;;;;;;12.10;7.90;;;;;;;12.32;100.00;100973.88;1682241;83;21223;-65
2023/01/02 08:57:33;;;;;;;12.07;7.83;;;;;;;12.11;100.00;100964.08;1682481;85;21315;-64
2023/01/02 09:00:01;;;;;;;9.73;7.33;;;;;;;11.92;100.00;100967.97;1682747;84;21015;-65
2023/01/02 09:02:29;;;;;;;10.47;7.50;;;;;;;11.82;100.00;100969.98;1682303;83;21415;-64
2023/01/02 09:04:57;;;;;;;9.57;7.20;;;;;;;11.76;100.00;100972.47;1682528;84;21541;-67
2023/01/02 09:07:25;;;;;;;10.53;7.67;;;;;;;11.67;100.00;100975.14;1682209;85;21260;-63
2023/01/02 09:09:53;;;;;;;11.57;8.83;;;;;;;11.59;100.00;100972.58;1682657;85;21489;-63
2023/01/02 09:12:20;;;;;;;10.40;7.77;;;;;;;11.57;100.00;100962.78;1681837;85;20984;-64
2023/01/02 09:14:47;;;;;;;10.00;7.37;;;;;;;11.58;100.00;100971.42;1682354;84;20971;-66
2023/01/02 09:17:14;;;;;;;10.70;7.70;;;;;;;11.57;100.00;100972.42;1682244;84;21007;-64
2023/01/02 09:19:43;;;;;;;10.80;7.83;;;;;;;11.53;100.00;100973.75;1682425;84;22399;-62
2023/01/02 09:22:11;;;;;;;13.13;9.03;;;;;;;11.52;100.00;100979.97;1681712;83;21109;-62
2023/01/02 09:24:38;;;;;;;12.03;7.77;;;;;;;11.52;100.00;100978.66;1682358;85;22031;-64
2023/01/02 09:27:06;;;;;;;9.70;6.93;;;;;;;11.47;100.00;100977.03;1681652;83;21050;-64
2023/01/02 09:29:34;;;;;;;11.90;8.03;;;;;;;11.42;100.00;100990.61;1682535;84;21534;-63
2023/01/02 09:32:01;;;;;;;11.87;8.67;;;;;;;11.39;100.00;100985.22;1682612;84;21170;-61
2023/01/02 09:34:29;;;;;;;10.67;7.47;;;;;;;11.44;100.00;100988.65;1681802;83;21000;-61
2023/01/02 09:36:57;;;;;;;14.77;8.80;;;;;;;11.52;100.00;100987.80;1682148;85;21595;-61
2023/01/02 09:39:24;;;;;;;12.90;8.00;;;;;;;11.58;100.00;100983.17;1681929;83;21485;-61
2023/01/02 09:41:56;;;;;;;11.90;7.57;;;;;;;11.66;100.00;100977.91;1682404;84;21619;-63
2023/01/02 09:44:28;;;;;;;12.00;7.30;;;;;;;11.72;100.00;100982.45;1682049;85;21243;-62
2023/01/02 09:46:59;;;;;;;;;;;;;;;11.77;100.00;100978.81;1683121;83;21081;-62
2023/01/02 09:49:29;;;;;;;11.75;7.67;;;;;;;11.90;100.00;100973.06;1682110;84;20134;-61
2023/01/02 09:51:56;;;;;;;11.50;7.37;;;;;;;12.16;100.00;100979.25;1682401;84;20999;-61
2023/01/02 09:54:28;;;;;;;9.27;6.47;;;;;;;12.56;100.00;100975.95;1662954;84;21063;-61
2023/01/02 09:57:31;;;;;;;8.70;6.03;;;;;;;12.96;100.00;100979.16;1682392;85;21900;-65
2023/01/02 10:00:19;;;;;;;10.20;7.30;;;;;;;13.28;100.00;100974.84;1682098;83;21035;-61
2023/01/02 10:03:14;;;;;;;11.20;7.33;;;;;;;13.49;100.00;100974.60;1681818;83;21011;-62
2023/01/02 10:06:13;;;;;;;11.03;8.20;;;;;;;13.54;100.00;100972.23;1682079;85;21343;-61
2023/01/02 10:09:01;;;;;;;11.43;7.90;;;;;;;13.44;100.00;100970.39;1679958;85;21091;-61
2023/01/02 10:11:43;;;;;;;11.37;8.63;;;;;;;13.27;100.00;100966.69;1682370;84;21147;-65
2023/01/02 10:14:24;;;;;;;9.95;7.12;;;;;;;13.04;100.00;100972.52;1681985;84;22725;-66
2023/01/02 10:16:55;;;;;;;9.27;7.37;;;;;;;12.87;100.00;100979.21;1682713;85;20999;-63
2023/01/02 10:19:33;;;;;;;8.27;6.60;;;;;;;12.70;100.00;100971.73;1682182;83;21034;-63
2023/01/02 10:22:01;;;;;;;9.87;6.00;;;;;;;12.56;100.00;100980.68;1681106;85;21029;-65
2023/01/02 10:25:01;;;;;;;10.57;7.83;;;;;;;12.48;100.00;100986.48;1682476;85;21463;-62
2023/01/02 10:27:51;;;;;;;11.13;7.43;;;;;;;12.37;100.00;100989.84;1682135;83;21522;-68
2023/01/02 10:30:24;;;;;;;10.53;7.42;;;;;;;12.24;100.00;100990.94;1699238;84;21042;-64
2023/01/02 10:32:56;;;;;;;10.90;7.83;;;;;;;12.15;100.00;100992.78;1700505;84;21057;-62
2023/01/02 10:35:40;;;;;;;11.43;7.57;;;;;;;12.04;100.00;100982.74;1699917;84;20979;-63
2023/01/02 10:38:12;;;;;;;10.93;8.03;;;;;;;11.98;100.00;100980.04;1699888;84;21584;-63
2023/01/02 10:40:42;;;;;;;10.20;7.77;;;;;;;11.88;100.00;100981.06;1700751;82;21489;-62
2023/01/02 10:43:09;;;;;;;12.07;7.60;;;;;;;11.85;100.00;100991.05;1700193;84;21432;-61
2023/01/02 10:45:38;;;;;;;9.30;7.00;;;;;;;11.80;100.00;100990.23;1700499;84;20982;-62
2023/01/02 10:48:07;;;;;;;11.80;7.53;;;;;;;11.77;100.00;100991.06;1700182;82;20906;-61
2023/01/02 10:50:43;;;;;;;10.63;7.23;;;;;;;11.73;100.00;100995.02;1700504;84;21171;-63
2023/01/02 10:53:35;;;;;;;10.67;7.70;;;;;;;11.72;100.00;100992.09;1700298;82;21534;-60
2023/01/02 10:56:06;;;;;;;13.20;8.93;;;;;;;11.70;100.00;100989.63;1700830;82;21443;-61
2023/01/02 10:58:34;;;;;;;14.53;10.20;;;;;;;11.66;100.00;100989.66;1698725;82;21582;-62
2023/01/02 11:01:19;;;;;;;15.63;10.67;;;;;;;11.62;100.00;100989.19;1700520;82;21599;-62
2023/01/02 11:03:49;;;;;;;16.80;12.80;;;;;;;11.57;100.00;100992.00;1700610;84;21952;-62
2023/01/02 11:06:30;;;;;;;12.03;9.13;;;;;;;11.52;100.00;100997.74;1690764;84;21464;-64
2023/01/02 11:09:03;;;;;;;12.25;9.13;;;;;;;11.48;100.00;100999.07;1699294;83;21053;-62
2023/01/02 11:11:31;;;;;;;10.60;8.47;;;;;;;11.39;100.00;100995.66;1679475;84;21013;-62
2023/01/02 11:14:06;;;;;;;10.57;7.63;;;;;;;11.32;100.00;101002.55;1700414;82;21121;-63
2023/01/02 11:16:37;;;;;;;10.07;6.03;;;;;;;11.27;100.00;101000.94;1700466;84;21672;-65
2023/01/02 11:19:06;;;;;;;9.27;6.43;;;;;;;11.23;100.00;100995.74;1700575;82;21458;-62
2023/01/02 11:21:36;;;;;;;9.90;6.60;;;;;;;11.21;100.00;100997.69;1700431;82;21074;-62
2023/01/02 11:24:14;;;;;;;9.40;5.97;;;;;;;11.21;100.00;101008.12;1700280;84;20947;-62
2023/01/02 11:26:39;;;;;;;8.60;5.77;;;;;;;11.16;100.00;101002.61;1699325;84;20914;-63
2023/01/02 11:29:27;;;;;;;10.23;6.33;;;;;;;11.09;100.00;101006.87;1700306;82;21182;-61
2023/01/02 11:31:56;;;;;;;8.87;5.97;;;;;;;11.01;100.00;101016.84;1700238;84;21952;-61